Impacts METAR Board
IDs:

KFLL - Ft Lauderdale-Hollyw, FL, US

Updated at: 1900 UTC 02 Oct 2022
Potential Impact None Slight Moderate High
Time 02/07Z 02/08Z 02/09Z 02/10Z 02/11Z 02/12Z 02/13Z 02/14Z 02/15Z 02/16Z 02/17Z 02/18Z 02/19Z
Temp76 75 74 75 75 75 76 77 79 81 82 83 86
Dewpt73 71 72 73 73 73 73 72 70 68 68 64 65
Altim29.84 29.84 29.83 29.84 29.86 29.88 29.90 29.92 29.93 29.92 29.92 29.89 29.87
VIS10 7 8 8 10 10 10 10 10 10 10 10 10
CIG45 30 40 40 45 45 45 65 43 70 70 65 70
CoverOVCOVCOVCOVCOVCOVCOVCBKNBKNBKNBKNBKNBKN
FltCatVFRMVFRVFRVFRVFRVFRVFRVFRVFRVFRVFRVFRVFR
WX--RA-RA-RA-RA----------------
WDir1070330030340350350101036010350
WSpd5 6 3 0 3 3 5 5 8 8 5 7 8
WGst-- -- -- -- -- -- -- -- -- -- -- -- --
Raw hourly METARs
KFLL 020653Z 01005KT 10SM BKN045 OVC060 24/23 A2984 RMK AO2 LTG DSNT E SLP104 T02440228
KFLL 020753Z 07006KT 7SM RA SCT020 OVC030 24/22 A2984 RMK AO2 RAB51 SLP104 P0000 T02390217
KFLL 020853Z 33003KT 8SM -RA SCT028 OVC040 23/22 A2983 RMK AO2 SLP101 P0000 60000 T02330222 56010
KFLL 020953Z 00000KT 8SM -RA FEW019 OVC040 24/23 A2984 RMK AO2 RAE0854B51 SLP105 P0000 T02390228
KFLL 021053Z 03003KT 10SM -RA FEW020 OVC045 24/23 A2986 RMK AO2 SLP111 P0000 T02390228
KFLL 021153Z 34003KT 10SM FEW021 OVC045 24/23 A2988 RMK AO2 RAE47 SLP116 P0000 60000 T02390228 10244 20233 53015
KFLL 021253Z 35005KT 10SM FEW026 OVC045 24/23 A2990 RMK AO2 SLP125 T02440228
KFLL 021353Z 35005KT 10SM SCT045 BKN065 25/22 A2992 RMK AO2 SLP131 T02500222
KFLL 021453Z 01008KT 10SM BKN043 BKN060 26/21 A2993 RMK AO2 SLP133 T02610211 51017
KFLL 021553Z 01008KT 10SM FEW028 SCT042 BKN070 27/20 A2992 RMK AO2 SLP132 T02720200
KFLL 021653Z 36005KT 10SM FEW030 SCT050 BKN070 BKN200 28/20 A2992 RMK AO2 SLP130 T02780200
KFLL 021753Z 01007KT 10SM SCT037 BKN065 BKN200 28/18 A2989 RMK AO2 SLP123 T02830178 10289 20239 58010
KFLL 021853Z 35008KT 10SM SCT036 BKN070 BKN200 30/18 A2987 RMK AO2 SLP115 T03000183



Page loaded:  19:49 UTC  |   12:49 PM Pacific  |   01:49 PM Mountain  |   02:49 PM Central  |   03:49 PM Eastern

 

ADVISORIES

FORECASTS

FORECASTS

OBSERVATIONS

USER TOOLS

ABOUT US